createdAt,value
2023-04-20T00:02:25.499Z,4.60
2023-04-20T00:04:54.319Z,5.70
2023-04-20T00:07:24.826Z,3.90
2023-04-20T00:09:53.226Z,4.83
2023-04-20T00:12:22.965Z,3.60
2023-04-20T00:14:51.855Z,4.03
2023-04-20T00:17:20.406Z,4.23
2023-04-20T00:19:49.261Z,4.20
2023-04-20T00:22:17.708Z,5.00
2023-04-20T00:24:46.094Z,5.13
2023-04-20T00:27:14.506Z,5.00
2023-04-20T00:29:44.240Z,4.80
2023-04-20T00:32:12.699Z,7.20
2023-04-20T00:34:42.355Z,5.50
2023-04-20T00:37:10.725Z,4.27
2023-04-20T00:39:39.152Z,5.73
2023-04-20T00:42:08.230Z,8.77
2023-04-20T00:44:36.974Z,5.00
2023-04-20T00:47:07.193Z,4.97
2023-04-20T00:49:35.715Z,7.07
2023-04-20T00:52:04.296Z,8.80
2023-04-20T00:54:34.007Z,8.40
2023-04-20T00:57:02.620Z,5.80
2023-04-20T00:59:31.048Z,6.90
2023-04-20T01:02:00.028Z,5.40
2023-04-20T01:04:30.582Z,8.10
2023-04-20T01:07:00.076Z,7.40
2023-04-20T01:09:28.611Z,6.03
2023-04-20T01:11:57.080Z,5.47
2023-04-20T01:14:25.698Z,5.80
2023-04-20T01:16:54.107Z,5.03
2023-04-20T01:19:22.729Z,6.33
2023-04-20T01:21:52.808Z,4.90
2023-04-20T01:24:22.676Z,5.00
2023-04-20T01:26:51.124Z,5.53
2023-04-20T01:29:19.665Z,6.80
2023-04-20T01:31:48.170Z,5.53
2023-04-20T01:34:17.712Z,4.57
2023-04-20T01:36:47.194Z,4.50
2023-04-20T01:39:15.839Z,6.47
2023-04-20T01:41:45.912Z,5.57
2023-04-20T01:44:14.368Z,4.13
2023-04-20T01:46:42.916Z,4.90
2023-04-20T01:49:11.568Z,6.43
2023-04-20T01:51:39.951Z,6.80
2023-04-20T01:54:08.335Z,8.20
2023-04-20T01:56:37.096Z,3.70
2023-04-20T01:59:06.918Z,5.30
2023-04-20T02:01:35.435Z,4.93
2023-04-20T02:04:04.072Z,6.13
2023-04-20T02:06:33.092Z,7.70
2023-04-20T02:09:01.738Z,4.60
2023-04-20T02:11:30.134Z,9.33
2023-04-20T02:13:58.488Z,8.73
2023-04-20T02:16:29.335Z,6.43
2023-04-20T02:18:58.013Z,8.70
2023-04-20T02:21:26.456Z,6.67
2023-04-20T02:23:54.920Z,5.97
2023-04-20T02:26:23.788Z,5.03
2023-04-20T02:28:52.240Z,5.70
2023-04-20T02:31:20.760Z,5.87
2023-04-20T02:33:51.525Z,5.97
2023-04-20T02:36:20.687Z,7.57
2023-04-20T02:38:49.122Z,9.67
2023-04-20T02:41:17.546Z,7.47
2023-04-20T02:43:46.066Z,4.97
2023-04-20T02:46:14.476Z,7.87
2023-04-20T02:48:43.075Z,5.30
2023-04-20T02:51:13.378Z,5.30
2023-04-20T02:53:45.714Z,6.70
2023-04-20T02:56:27.957Z,5.27
2023-04-20T02:59:00.044Z,6.43
2023-04-20T03:01:48.767Z,7.10
2023-04-20T03:04:21.142Z,6.33
2023-04-20T03:07:06.931Z,5.83
2023-04-20T03:09:38.149Z,4.63
2023-04-20T03:12:09.754Z,6.27
2023-04-20T03:14:56.811Z,5.00
2023-04-20T03:17:36.722Z,5.93
2023-04-20T03:20:06.119Z,6.40
2023-04-20T03:22:35.885Z,5.27
2023-04-20T03:25:04.676Z,6.17
2023-04-20T03:27:48.620Z,5.83
2023-04-20T03:30:17.377Z,6.33
2023-04-20T03:32:49.033Z,5.97
2023-04-20T03:35:17.817Z,6.57
2023-04-20T03:37:47.839Z,10.07
2023-04-20T03:40:16.203Z,6.23
2023-04-20T03:42:44.601Z,6.13
2023-04-20T03:45:14.704Z,6.57
2023-04-20T03:47:43.760Z,7.07
2023-04-20T03:50:12.644Z,6.37
2023-04-20T03:52:41.618Z,7.67
2023-04-20T03:55:13.196Z,9.03
2023-04-20T03:57:47.392Z,7.37
2023-04-20T04:00:17.038Z,7.67
2023-04-20T04:02:48.303Z,7.67
2023-04-20T04:05:24.450Z,7.40
2023-04-20T04:07:53.192Z,8.70
2023-04-20T04:10:22.954Z,8.27
2023-04-20T04:12:51.421Z,8.50
2023-04-20T04:15:20.315Z,7.80
2023-04-20T04:17:55.715Z,8.27
2023-04-20T04:20:24.643Z,8.13
2023-04-20T04:22:53.712Z,8.10
2023-04-20T04:25:43.688Z,9.10
2023-04-20T04:28:14.770Z,8.20
2023-04-20T04:30:52.511Z,8.87
2023-04-20T04:33:21.997Z,9.60
2023-04-20T04:35:53.696Z,10.27
2023-04-20T04:38:22.699Z,9.33
2023-04-20T04:40:54.023Z,8.33
2023-04-20T04:43:22.554Z,9.60
2023-04-20T04:46:00.622Z,11.40
2023-04-20T04:48:29.624Z,8.67
2023-04-20T04:50:58.046Z,7.80
2023-04-20T04:53:26.464Z,9.13
2023-04-20T04:55:56.243Z,9.20
2023-04-20T04:58:25.071Z,9.13
2023-04-20T05:00:53.532Z,11.13
2023-04-20T05:03:22.089Z,8.70
2023-04-20T05:05:50.694Z,9.40
2023-04-20T05:08:19.129Z,10.73
2023-04-20T05:10:47.592Z,9.33
2023-04-20T05:13:17.297Z,9.30
2023-04-20T05:15:45.922Z,9.73
2023-04-20T05:18:14.236Z,9.63
2023-04-20T05:20:42.632Z,10.20
2023-04-20T05:23:10.977Z,10.70
2023-04-20T05:25:39.623Z,11.00
2023-04-20T05:28:07.953Z,10.37
2023-04-20T05:30:37.661Z,11.20
2023-04-20T05:33:06.092Z,10.57
2023-04-20T05:35:34.492Z,10.57
2023-04-20T05:38:06.238Z,10.73
2023-04-20T05:40:35.581Z,10.47
2023-04-20T05:43:04.099Z,11.13
2023-04-20T05:45:34.142Z,10.03
2023-04-20T05:48:04.077Z,10.30
2023-04-20T05:50:32.472Z,9.70
2023-04-20T05:53:01.022Z,10.33
2023-04-20T05:55:29.506Z,9.47
2023-04-20T05:57:58.222Z,10.57
2023-04-20T06:00:26.698Z,10.07
2023-04-20T06:02:55.658Z,8.63
2023-04-20T06:05:25.912Z,10.43
2023-04-20T06:07:54.365Z,9.93
2023-04-20T06:10:22.871Z,9.07
2023-04-20T06:12:51.497Z,9.53
2023-04-20T06:15:20.072Z,9.43
2023-04-20T06:17:48.626Z,10.57
2023-04-20T06:20:17.294Z,12.03
2023-04-20T06:22:47.722Z,9.70
2023-04-20T06:25:16.424Z,8.93
2023-04-20T06:27:44.948Z,8.13
2023-04-20T06:30:14.711Z,7.90
2023-04-20T06:32:43.098Z,12.33
2023-04-20T06:35:11.731Z,9.73
2023-04-20T06:37:40.757Z,9.30
2023-04-20T06:40:10.990Z,7.83
2023-04-20T06:42:39.357Z,8.10
2023-04-20T06:45:09.383Z,8.53
2023-04-20T06:47:37.909Z,7.80
2023-04-20T06:50:09.702Z,10.40
2023-04-20T06:52:39.106Z,7.90
2023-04-20T06:55:08.410Z,9.10
2023-04-20T06:57:38.723Z,8.70
2023-04-20T07:00:10.062Z,8.17
2023-04-20T07:02:46.102Z,8.17
2023-04-20T07:05:14.735Z,9.23
2023-04-20T07:07:43.670Z,8.17
2023-04-20T07:10:14.959Z,8.63
2023-04-20T07:12:47.004Z,7.80
2023-04-20T07:15:15.705Z,8.43
2023-04-20T07:17:44.147Z,7.90
2023-04-20T07:20:13.180Z,8.70
2023-04-20T07:22:41.715Z,9.53
2023-04-20T07:25:11.537Z,8.53
2023-04-20T07:27:41.872Z,8.87
2023-04-20T07:30:13.149Z,8.13
2023-04-20T07:32:42.495Z,7.13
2023-04-20T07:35:11.673Z,8.87
2023-04-20T07:37:40.761Z,8.13
2023-04-20T07:40:10.899Z,8.30
2023-04-20T07:42:39.384Z,7.93
2023-04-20T07:45:09.802Z,9.20
2023-04-20T07:47:39.860Z,7.93
2023-04-20T07:50:09.608Z,8.00
2023-04-20T07:52:37.940Z,7.67
2023-04-20T07:55:08.303Z,7.27
2023-04-20T07:57:37.136Z,8.80
2023-04-20T08:00:08.488Z,8.50
2023-04-20T08:02:42.652Z,8.00
2023-04-20T08:05:11.714Z,8.53
2023-04-20T08:07:40.746Z,8.50
2023-04-20T08:10:10.647Z,6.37
2023-04-20T08:12:39.688Z,7.10
2023-04-20T08:15:10.189Z,8.23
2023-04-20T08:17:38.526Z,6.63
2023-04-20T08:20:10.765Z,7.07
2023-04-20T08:22:40.050Z,5.93
2023-04-20T08:25:09.322Z,6.13
2023-04-20T08:27:37.762Z,7.40
2023-04-20T08:30:08.883Z,6.70
2023-04-20T08:32:37.348Z,6.27
2023-04-20T08:35:08.671Z,6.30
2023-04-20T08:37:37.561Z,6.20
2023-04-20T08:40:07.251Z,6.27
2023-04-20T08:42:35.788Z,7.10
2023-04-20T08:45:04.570Z,6.43
2023-04-20T08:47:34.796Z,6.70
2023-04-20T08:50:07.788Z,6.70
2023-04-20T08:52:38.713Z,6.03
2023-04-20T08:55:09.152Z,6.03
2023-04-20T08:57:37.597Z,5.93
2023-04-20T09:00:13.024Z,7.40
2023-04-20T09:02:51.536Z,9.33
2023-04-20T09:05:29.178Z,6.70
2023-04-20T09:08:01.960Z,6.30
2023-04-20T09:10:42.622Z,6.50
2023-04-20T09:13:23.038Z,6.03
2023-04-20T09:15:52.208Z,6.80
2023-04-20T09:18:21.358Z,11.30
2023-04-20T09:20:51.549Z,6.70
2023-04-20T09:23:21.577Z,6.60
2023-04-20T09:25:53.533Z,6.80
2023-04-20T09:28:22.193Z,7.03
2023-04-20T09:30:51.808Z,6.60
2023-04-20T09:33:20.316Z,6.83
2023-04-20T09:35:50.045Z,7.30
2023-04-20T09:38:18.541Z,7.30
2023-04-20T09:40:46.985Z,6.50
2023-04-20T09:43:20.835Z,9.50
2023-04-20T09:45:50.509Z,5.97
2023-04-20T09:48:20.917Z,5.97
2023-04-20T09:50:51.927Z,6.27
2023-04-20T09:53:21.160Z,6.70
2023-04-20T09:55:51.843Z,8.83
2023-04-20T09:58:21.862Z,6.53
2023-04-20T10:00:51.110Z,7.93
2023-04-20T10:03:20.589Z,6.13
2023-04-20T10:05:52.948Z,5.90
2023-04-20T10:08:21.901Z,6.13
2023-04-20T10:10:52.318Z,6.70
2023-04-20T10:13:23.245Z,6.67
2023-04-20T10:15:51.593Z,6.13
2023-04-20T10:18:23.595Z,7.20
2023-04-20T10:21:05.874Z,6.53
2023-04-20T10:23:34.321Z,10.00
2023-04-20T10:26:03.934Z,6.33
2023-04-20T10:28:42.972Z,5.33
2023-04-20T10:31:13.756Z,9.20
2023-04-20T10:33:53.781Z,6.03
2023-04-20T10:36:29.401Z,7.03
2023-04-20T10:38:58.157Z,7.07
2023-04-20T10:41:27.207Z,5.90
2023-04-20T10:43:55.644Z,8.33
2023-04-20T10:46:26.386Z,6.53
2023-04-20T10:48:56.653Z,6.50
2023-04-20T10:51:26.987Z,6.50
2023-04-20T10:54:05.053Z,6.47
2023-04-20T10:56:40.995Z,6.87
2023-04-20T10:59:10.384Z,7.43
2023-04-20T11:01:39.495Z,5.83
2023-04-20T11:04:08.263Z,5.63
2023-04-20T11:06:39.551Z,5.67
2023-04-20T11:09:20.021Z,10.17
2023-04-20T11:12:02.011Z,7.67
2023-04-20T11:14:31.323Z,6.60
2023-04-20T11:16:59.995Z,8.43
2023-04-20T11:19:30.703Z,8.30
2023-04-20T11:22:00.954Z,7.50
2023-04-20T11:24:31.894Z,7.40
2023-04-20T11:27:02.232Z,8.37
2023-04-20T11:29:33.302Z,8.37
2023-04-20T11:32:05.300Z,8.03
2023-04-20T11:34:35.552Z,6.97
2023-04-20T11:37:07.818Z,6.27
2023-04-20T11:39:36.504Z,6.20
2023-04-20T11:42:06.166Z,6.27
2023-04-20T11:44:36.837Z,6.50
2023-04-20T11:47:06.154Z,6.23
2023-04-20T11:49:34.674Z,5.70
2023-04-20T11:52:03.334Z,5.47
2023-04-20T11:54:35.071Z,8.70
2023-04-20T11:57:04.600Z,5.37
2023-04-20T11:59:33.183Z,7.07
2023-04-20T12:02:04.224Z,6.90
2023-04-20T12:04:33.593Z,5.77
2023-04-20T12:07:03.485Z,5.90
2023-04-20T12:09:36.189Z,7.53
2023-04-20T12:12:04.911Z,6.10
2023-04-20T12:14:34.622Z,8.70
2023-04-20T12:17:03.865Z,5.70
2023-04-20T12:19:32.932Z,5.83
2023-04-20T12:22:01.299Z,6.90
2023-04-20T12:24:29.683Z,5.93
2023-04-20T12:26:59.535Z,5.57
2023-04-20T12:29:28.016Z,5.20
2023-04-20T12:31:56.587Z,5.93
2023-04-20T12:34:25.096Z,5.40
2023-04-20T12:36:53.538Z,6.30
2023-04-20T12:39:21.998Z,5.93
2023-04-20T12:41:50.342Z,5.00
2023-04-20T12:44:20.371Z,5.53
2023-04-20T12:46:49.114Z,4.67
2023-04-20T12:49:17.871Z,5.00
2023-04-20T12:51:46.609Z,4.90
2023-04-20T12:54:14.917Z,4.23
2023-04-20T12:56:43.296Z,4.73
2023-04-20T12:59:11.721Z,5.73
2023-04-20T13:01:41.684Z,4.20
2023-04-20T13:04:10.415Z,5.47
2023-04-20T13:06:38.969Z,4.90
2023-04-20T13:09:07.383Z,5.80
2023-04-20T13:11:35.965Z,5.43
2023-04-20T13:14:04.973Z,3.73
2023-04-20T13:16:33.452Z,4.17
2023-04-20T13:19:03.381Z,3.00
2023-04-20T13:21:33.194Z,3.20
2023-04-20T13:24:01.620Z,2.63
2023-04-20T13:26:30.264Z,3.20
2023-04-20T13:28:58.897Z,5.77
2023-04-20T13:31:27.662Z,7.03
2023-04-20T13:33:56.323Z,3.33
2023-04-20T13:36:28.367Z,3.07
2023-04-20T13:38:57.525Z,4.40
2023-04-20T13:41:26.055Z,3.60
2023-04-20T13:43:54.537Z,3.53
2023-04-20T13:46:23.116Z,3.47
2023-04-20T13:48:51.606Z,4.40
2023-04-20T13:51:20.455Z,4.07
2023-04-20T13:53:50.448Z,4.67
2023-04-20T13:56:18.952Z,4.40
2023-04-20T13:58:47.330Z,4.47
2023-04-20T14:01:17.095Z,3.70
2023-04-20T14:03:45.937Z,4.00
2023-04-20T14:06:14.361Z,7.67
2023-04-20T14:08:42.785Z,4.73
2023-04-20T14:11:13.986Z,4.30
2023-04-20T14:13:42.509Z,5.20
2023-04-20T14:16:12.166Z,6.07
2023-04-20T14:18:40.858Z,5.53
2023-04-20T14:21:09.427Z,4.93
2023-04-20T14:23:38.231Z,5.10
2023-04-20T14:26:06.866Z,4.23
2023-04-20T14:28:36.668Z,4.53
2023-04-20T14:31:05.121Z,4.33
2023-04-20T14:33:37.040Z,4.83
2023-04-20T14:36:05.895Z,3.33
2023-04-20T14:38:34.286Z,4.33
2023-04-20T14:41:03.009Z,4.73
2023-04-20T14:43:32.361Z,4.43
2023-04-20T14:46:02.657Z,4.07
2023-04-20T14:48:31.170Z,4.20
2023-04-20T14:51:00.424Z,5.43
2023-04-20T14:53:29.276Z,7.13
2023-04-20T14:55:58.550Z,5.30
2023-04-20T14:58:26.947Z,4.60
2023-04-20T15:00:55.925Z,5.93
2023-04-20T15:03:25.953Z,5.10
2023-04-20T15:05:55.137Z,6.60
2023-04-20T15:08:24.855Z,8.77
2023-04-20T15:10:56.570Z,6.67
2023-04-20T15:13:25.463Z,6.83
2023-04-20T15:15:55.481Z,6.60
2023-04-20T15:18:25.556Z,7.40
2023-04-20T15:20:53.957Z,7.03
2023-04-20T15:23:22.501Z,8.03
2023-04-20T15:25:51.012Z,7.90
2023-04-20T15:28:19.484Z,8.20
2023-04-20T15:30:47.818Z,7.50
2023-04-20T15:33:16.282Z,7.90
2023-04-20T15:35:46.073Z,7.83
2023-04-20T15:38:14.594Z,7.97
2023-04-20T15:40:43.375Z,7.47
2023-04-20T15:43:11.778Z,8.63
2023-04-20T15:45:40.830Z,7.40
2023-04-20T15:48:10.636Z,8.67
2023-04-20T15:50:39.042Z,8.23
2023-04-20T15:53:08.816Z,10.80
2023-04-20T15:55:39.783Z,7.83
2023-04-20T15:58:08.154Z,7.47
2023-04-20T16:00:36.863Z,8.70
2023-04-20T16:03:05.800Z,6.73
2023-04-20T16:05:34.793Z,6.60
2023-04-20T16:08:03.292Z,7.60
2023-04-20T16:10:33.274Z,6.90
2023-04-20T16:13:01.794Z,6.50
2023-04-20T16:15:30.748Z,9.33
2023-04-20T16:18:00.080Z,5.47
2023-04-20T16:20:28.722Z,6.37
2023-04-20T16:22:57.110Z,7.70
2023-04-20T16:25:25.945Z,7.50
2023-04-20T16:27:55.942Z,6.27
2023-04-20T16:30:24.511Z,7.30
2023-04-20T16:32:53.298Z,7.43
2023-04-20T16:35:21.936Z,7.67
2023-04-20T16:37:50.347Z,8.40
2023-04-20T16:40:20.901Z,8.00
2023-04-20T16:42:49.341Z,8.40
2023-04-20T16:45:19.834Z,9.67
2023-04-20T16:47:48.923Z,9.40
2023-04-20T16:50:19.583Z,8.90
2023-04-20T16:52:48.477Z,10.67
2023-04-20T16:55:17.306Z,10.60
2023-04-20T16:57:45.759Z,10.13
2023-04-20T17:00:15.993Z,10.87
2023-04-20T17:02:45.972Z,10.03
2023-04-20T17:05:14.629Z,12.20
2023-04-20T17:07:43.024Z,10.13
2023-04-20T17:10:11.971Z,10.27
2023-04-20T17:12:41.661Z,11.60
2023-04-20T17:15:12.389Z,12.07
2023-04-20T17:17:40.863Z,11.93
2023-04-20T17:20:11.905Z,12.53
2023-04-20T17:22:40.300Z,13.53
2023-04-20T17:25:10.484Z,13.43
2023-04-20T17:27:38.958Z,14.57
2023-04-20T17:30:09.130Z,12.80
2023-04-20T17:32:37.505Z,14.60
2023-04-20T17:35:06.926Z,12.90
2023-04-20T17:37:37.482Z,14.60
2023-04-20T17:40:08.152Z,13.47
2023-04-20T17:42:36.549Z,13.73
2023-04-20T17:45:05.717Z,14.90
2023-04-20T17:47:34.239Z,13.13
2023-04-20T17:50:04.702Z,14.60
2023-04-20T17:52:33.231Z,14.50
2023-04-20T17:55:03.080Z,14.07
2023-04-20T17:57:31.472Z,15.30
2023-04-20T17:59:59.865Z,15.23
2023-04-20T18:02:28.646Z,16.07
2023-04-20T18:04:59.675Z,16.23
2023-04-20T18:07:28.770Z,17.13
2023-04-20T18:09:57.119Z,17.73
2023-04-20T18:12:27.154Z,18.27
2023-04-20T18:14:55.594Z,17.00
2023-04-20T18:17:24.074Z,18.70
2023-04-20T18:19:52.496Z,19.90
2023-04-20T18:22:20.912Z,17.27
2023-04-20T18:24:51.271Z,18.57
2023-04-20T18:27:20.416Z,18.63
2023-04-20T18:29:50.614Z,19.17
2023-04-20T18:32:19.019Z,18.90
2023-04-20T18:34:47.458Z,19.43
2023-04-20T18:37:15.901Z,19.60
2023-04-20T18:39:44.417Z,19.03
2023-04-20T18:42:12.835Z,19.67
2023-04-20T18:44:41.668Z,22.00
2023-04-20T18:47:11.456Z,22.53
2023-04-20T18:49:39.925Z,20.47
2023-04-20T18:52:08.669Z,24.40
2023-04-20T18:54:38.456Z,23.70
2023-04-20T18:57:07.745Z,22.90
2023-04-20T18:59:36.277Z,24.33
2023-04-20T19:02:04.785Z,23.67
2023-04-20T19:04:36.244Z,24.10
2023-04-20T19:07:04.677Z,24.87
2023-04-20T19:09:33.049Z,24.43
2023-04-20T19:12:02.266Z,24.63
2023-04-20T19:14:30.763Z,24.77
2023-04-20T19:16:59.197Z,24.00
2023-04-20T19:19:27.617Z,22.57
2023-04-20T19:21:57.828Z,24.90
2023-04-20T19:24:26.230Z,24.90
2023-04-20T19:26:54.783Z,26.23
2023-04-20T19:29:23.198Z,25.63
2023-04-20T19:31:51.847Z,23.30
2023-04-20T19:34:22.223Z,25.23
2023-04-20T19:36:50.628Z,23.90
2023-04-20T19:39:20.348Z,26.73
2023-04-20T19:41:49.312Z,25.57
2023-04-20T19:44:18.072Z,29.00
2023-04-20T19:46:46.548Z,25.63
2023-04-20T19:49:14.984Z,25.90
2023-04-20T19:51:43.397Z,26.70
2023-04-20T19:54:12.129Z,25.33
2023-04-20T19:56:41.864Z,27.33
2023-04-20T19:59:10.367Z,27.10
2023-04-20T20:01:38.870Z,27.87
2023-04-20T20:04:07.424Z,28.07
2023-04-20T20:06:36.022Z,30.87
2023-04-20T20:09:06.158Z,27.67
2023-04-20T20:11:34.573Z,31.00
2023-04-20T20:14:04.324Z,29.40
2023-04-20T20:16:32.681Z,31.83
2023-04-20T20:19:01.155Z,30.33
2023-04-20T20:21:29.702Z,30.73
2023-04-20T20:23:58.130Z,31.83
2023-04-20T20:26:26.976Z,31.83
2023-04-20T20:28:55.503Z,30.30
2023-04-20T20:31:25.426Z,31.33
2023-04-20T20:33:53.821Z,29.70
2023-04-20T20:36:22.384Z,28.50
2023-04-20T20:38:50.908Z,34.07
2023-04-20T20:41:21.217Z,31.60
2023-04-20T20:43:50.551Z,36.67
2023-04-20T20:46:19.230Z,30.77
2023-04-20T20:48:49.057Z,34.10
2023-04-20T20:51:17.463Z,33.00
2023-04-20T20:53:46.461Z,31.60
2023-04-20T20:56:14.885Z,31.80
2023-04-20T20:58:43.316Z,34.47
2023-04-20T21:01:12.234Z,33.40
2023-04-20T21:03:41.108Z,35.40
2023-04-20T21:06:11.046Z,34.43
2023-04-20T21:08:39.496Z,33.87
2023-04-20T21:11:07.864Z,35.00
2023-04-20T21:13:36.446Z,34.50
2023-04-20T21:16:05.087Z,34.60
2023-04-20T21:18:34.124Z,35.33
2023-04-20T21:21:02.551Z,32.33
2023-04-20T21:23:32.307Z,38.17
2023-04-20T21:26:00.898Z,35.40
2023-04-20T21:28:29.367Z,34.47
2023-04-20T21:30:57.838Z,35.93
2023-04-20T21:33:26.330Z,34.03
2023-04-20T21:35:55.491Z,34.93
2023-04-20T21:38:25.470Z,38.13
2023-04-20T21:40:55.215Z,37.40
2023-04-20T21:43:23.596Z,35.10
2023-04-20T21:45:51.967Z,34.70
2023-04-20T21:48:20.352Z,35.67
2023-04-20T21:50:48.724Z,34.83
2023-04-20T21:53:17.155Z,36.73
2023-04-20T21:55:45.699Z,36.17
2023-04-20T21:58:15.705Z,36.27
2023-04-20T22:00:44.113Z,34.73
2023-04-20T22:03:12.719Z,35.60
2023-04-20T22:05:41.222Z,36.37
2023-04-20T22:08:09.661Z,34.13
2023-04-20T22:10:38.353Z,35.60
2023-04-20T22:13:06.825Z,36.63
2023-04-20T22:15:36.620Z,35.60
2023-04-20T22:18:05.469Z,37.57
2023-04-20T22:20:34.390Z,37.37
2023-04-20T22:23:05.840Z,35.70
2023-04-20T22:25:34.365Z,38.43
2023-04-20T22:28:02.894Z,41.47
2023-04-20T22:30:31.456Z,38.00
2023-04-20T22:33:01.522Z,36.37
2023-04-20T22:35:30.492Z,40.60
2023-04-20T22:37:59.379Z,39.93
2023-04-20T22:40:28.057Z,37.67
2023-04-20T22:42:56.534Z,38.57
2023-04-20T22:45:25.013Z,38.40
2023-04-20T22:47:53.526Z,37.63
2023-04-20T22:50:23.469Z,37.33
2023-04-20T22:52:52.187Z,39.53
2023-04-20T22:55:20.664Z,37.93
2023-04-20T22:57:49.093Z,38.93
2023-04-20T23:00:18.506Z,37.43
2023-04-20T23:02:47.075Z,36.97
2023-04-20T23:05:20.147Z,38.07
2023-04-20T23:07:50.203Z,34.73
2023-04-20T23:10:19.061Z,38.33
2023-04-20T23:12:47.935Z,35.83
2023-04-20T23:15:16.437Z,38.80
2023-04-20T23:17:44.931Z,36.77
2023-04-20T23:20:15.131Z,36.67
2023-04-20T23:22:43.521Z,37.43
2023-04-20T23:25:13.280Z,37.37
2023-04-20T23:27:41.632Z,37.07
2023-04-20T23:30:11.442Z,37.93
2023-04-20T23:32:40.769Z,35.57
2023-04-20T23:35:10.899Z,36.23
2023-04-20T23:37:39.320Z,36.30
2023-04-20T23:40:10.464Z,36.17
2023-04-20T23:42:40.379Z,36.60
2023-04-20T23:45:10.488Z,35.67
2023-04-20T23:47:38.992Z,36.97
2023-04-20T23:50:09.421Z,36.60
2023-04-20T23:52:38.065Z,35.50
2023-04-20T23:55:07.361Z,37.27
2023-04-20T23:57:35.888Z,37.67
